This is the latest recevied weather packets stored in our database for station/object K0RGI. If no packets are shown the sender has not sent any weather packets the latest 1 day(s).
| Time | Temp. | Humidity | Pressure | Rain* | Wind** | Luminosity | Snow |
|---|---|---|---|---|---|---|---|
| 1778018577 | 23.89° C | 50% | 1012.9 hPa | 0 mm | 0.45 m/s, 268° | 105 W/m² | - |
| 1778017972 | 23.89° C | 48% | 1012.8 hPa | 0 mm | 1.34 m/s, 315° | 123 W/m² | - |
| 1778017367 | 23.89° C | 48% | 1012.8 hPa | 0 mm | 1.34 m/s, 245° | 159 W/m² | - |
| 1778016768 | 24.44° C | 48% | 1012.8 hPa | 0 mm | 1.34 m/s, 274° | 161 W/m² | - |
| 1778016167 | 24.44° C | 47% | 1013 hPa | 0 mm | 1.34 m/s, 271° | 137 W/m² | - |
| 1778015567 | 24.44° C | 47% | 1013 hPa | 0 mm | 2.68 m/s, 258° | 172 W/m² | - |
| 1778014966 | 24.44° C | 48% | 1012.8 hPa | 0 mm | 0.45 m/s, 217° | 208 W/m² | - |
| 1778014361 | 25° C | 46% | 1013.1 hPa | 0 mm | 2.68 m/s, 331° | 143 W/m² | - |
| 1778013761 | 25.56° C | 45% | 1013.6 hPa | 0 mm | 0.45 m/s, 286° | 317 W/m² | - |
| 1778013161 | 25° C | 43% | 1013.4 hPa | 0 mm | 1.79 m/s, 251° | 217 W/m² | - |
| 1778012558 | 25.56° C | 42% | 1013.8 hPa | 0 mm | 0.89 m/s, 322° | 609 W/m² | - |
| 1778011959 | 25.56° C | 42% | 1013.8 hPa | 0 mm | 1.79 m/s, 275° | 534 W/m² | - |
| 1778011354 | 25.56° C | 41% | 1014 hPa | 0 mm | 0.89 m/s, 300° | 687 W/m² | - |
| 1778010753 | 25° C | 41% | 1014.2 hPa | 0 mm | 0.89 m/s, 251° | 517 W/m² | - |
| 1778010152 | 25° C | 42% | 1014.3 hPa | 0 mm | 1.34 m/s, 293° | 382 W/m² | - |
| 1778009551 | 23.89° C | 44% | 1014.2 hPa | 0 mm | 1.34 m/s, 256° | 369 W/m² | - |
| 1778008947 | 23.89° C | 43% | 1014.4 hPa | 0 mm | 0.45 m/s, 282° | 267 W/m² | - |
| 1778008343 | 23.89° C | 43% | 1014.5 hPa | 0 mm | 1.34 m/s, 261° | 240 W/m² | - |
| 1778007739 | 23.89° C | 46% | 1014.7 hPa | 0 mm | 0.89 m/s, 270° | 317 W/m² | - |
| 1778007138 | 23.89° C | 45% | 1014.8 hPa | 0 mm | 0 m/s | 314 W/m² | - |
| 1778006538 | 23.89° C | 46% | 1015.2 hPa | 0 mm | 0.45 m/s, 268° | 333 W/m² | - |
| 1778005950 | 23.89° C | 44% | 1015.3 hPa | 0 mm | 0.89 m/s, 273° | 399 W/m² | - |
| 1778005337 | 23.33° C | 44% | 1015.4 hPa | 0 mm | 0.45 m/s, 289° | 482 W/m² | - |
| 1778004737 | 23.89° C | 46% | 1015.8 hPa | 0 mm | 1.34 m/s, 322° | 391 W/m² | - |
| 1778004136 | 23.33° C | 45% | 1016.1 hPa | 0 mm | 0.45 m/s, 283° | 411 W/m² | - |
* Rain latest hour (hover to see other rain measurements)
** Current wind speed in m/s (hover to see current wind gust speed)